Time;durP1;ratioP1;P1;durP2;ratioP2;P2;SDS_P1;SDS_P2;PMS_P1;PMS_P2;Temp;Humidity;BMP_temperature;BMP_pressure;BME280_temperature;BME280_humidity;BME280_pressure;Samples;Min_cycle;Max_cycle;Signal;HPM_P1;HPM_P2
2022/10/10 00:00:01;;;;;;;15.77;7.53;;;8.10;99.90;;;;;;5033856;28;20499;-65
2022/10/10 00:02:27;;;;;;;10.73;7.03;;;8.10;99.90;;;;;;5010026;28;20041;-65
2022/10/10 00:04:53;;;;;;;12.60;7.25;;;8.10;99.90;;;;;;5027674;28;20515;-65
2022/10/10 00:07:19;;;;;;;10.00;7.03;;;8.10;99.90;;;;;;5016058;28;20045;-65
2022/10/10 00:09:45;;;;;;;11.27;7.13;;;8.10;99.90;;;;;;5029892;28;20081;-65
2022/10/10 00:12:11;;;;;;;10.95;7.47;;;8.20;99.90;;;;;;5032021;28;20040;-65
2022/10/10 00:14:37;;;;;;;13.73;7.35;;;8.10;99.90;;;;;;5015708;28;20037;-65
2022/10/10 00:17:03;;;;;;;11.82;7.65;;;8.10;99.90;;;;;;5004200;28;20130;-65
2022/10/10 00:19:28;;;;;;;11.88;7.38;;;8.10;99.90;;;;;;5033305;28;20411;-65
2022/10/10 00:21:54;;;;;;;11.05;7.50;;;8.10;99.90;;;;;;5033307;28;20045;-65
2022/10/10 00:24:20;;;;;;;11.85;7.47;;;8.10;99.90;;;;;;5005798;28;20057;-65
2022/10/10 00:26:45;;;;;;;12.20;7.28;;;8.10;99.90;;;;;;5027846;28;20037;-65
2022/10/10 00:29:11;;;;;;;12.93;7.25;;;8.10;99.90;;;;;;5033078;28;20033;-65
2022/10/10 00:31:36;;;;;;;12.65;7.65;;;8.10;99.90;;;;;;5015670;28;20037;-65
2022/10/10 00:34:02;;;;;;;15.65;7.22;;;8.10;99.90;;;;;;5013170;28;20466;-65
2022/10/10 00:36:28;;;;;;;10.48;6.95;;;8.10;99.90;;;;;;5024857;28;20033;-64
2022/10/10 00:38:54;;;;;;;11.77;7.32;;;8.10;99.90;;;;;;5015165;28;20049;-65
2022/10/10 00:41:21;;;;;;;14.48;7.38;;;8.10;99.90;;;;;;5012676;28;20124;-66
2022/10/10 00:44:05;;;;;;;16.85;7.22;;;8.10;99.90;;;;;;5031247;28;20107;-65
2022/10/10 00:46:31;;;;;;;16.25;7.57;;;8.00;99.90;;;;;;5015196;28;20128;-65
2022/10/10 00:48:57;;;;;;;10.60;7.57;;;8.00;99.90;;;;;;5015451;28;20112;-65
2022/10/10 00:51:23;;;;;;;10.95;8.30;;;8.00;99.90;;;;;;5013024;28;20041;-65
2022/10/10 00:53:52;;;;;;;14.63;7.38;;;7.90;99.90;;;;;;5016225;28;20463;-65
2022/10/10 00:56:24;;;;;;;12.60;7.72;;;7.90;99.90;;;;;;5032910;28;20053;-65
2022/10/10 00:58:51;;;;;;;;;;;8.00;99.90;;;;;;5008742;28;20052;-64
2022/10/10 01:01:16;;;;;;;11.60;7.32;;;8.00;99.90;;;;;;5018779;28;19978;-65
2022/10/10 01:03:42;;;;;;;12.23;7.72;;;7.90;99.90;;;;;;5014713;28;20046;-65
2022/10/10 01:06:08;;;;;;;13.30;7.25;;;7.80;99.90;;;;;;5029878;28;20042;-65
2022/10/10 01:08:35;;;;;;;10.88;7.28;;;7.80;99.90;;;;;;5027838;28;20030;-65
2022/10/10 01:11:13;;;;;;;12.25;8.10;;;7.80;99.90;;;;;;5031748;28;20147;-65
2022/10/10 01:13:54;;;;;;;11.55;7.10;;;7.70;99.90;;;;;;5032797;28;20037;-65
2022/10/10 01:16:35;;;;;;;10.30;7.73;;;7.70;99.90;;;;;;5025591;28;20313;-65
2022/10/10 01:19:03;;;;;;;10.50;7.70;;;7.70;99.90;;;;;;5031925;28;20152;-65
2022/10/10 01:22:08;;;;;;;13.40;7.68;;;7.70;99.90;;;;;;5014561;28;20057;-65
2022/10/10 01:24:53;;;;;;;11.05;7.90;;;7.60;99.90;;;;;;5008075;28;20107;-65
2022/10/10 01:27:32;;;;;;;14.38;8.10;;;7.60;99.90;;;;;;5024925;28;20041;-65
2022/10/10 01:30:03;;;;;;;12.35;8.10;;;7.50;99.90;;;;;;5032017;28;20116;-65
2022/10/10 01:32:34;;;;;;;14.63;8.23;;;7.50;99.90;;;;;;5021862;28;20041;-65
2022/10/10 01:35:14;;;;;;;11.45;8.02;;;7.50;99.90;;;;;;5009286;28;20034;-65
2022/10/10 01:38:01;;;;;;;12.23;7.78;;;7.40;99.90;;;;;;5014489;28;20164;-65
2022/10/10 01:40:48;;;;;;;14.05;7.97;;;7.40;99.90;;;;;;5002504;28;20530;-65
2022/10/10 01:43:14;;;;;;;11.95;8.10;;;7.30;99.90;;;;;;5007616;28;20140;-65
2022/10/10 01:45:48;;;;;;;16.25;7.43;;;7.40;99.90;;;;;;5014081;28;20120;-65
2022/10/10 01:48:29;;;;;;;15.32;7.82;;;7.30;99.90;;;;;;5021522;28;20029;-65
2022/10/10 01:50:55;;;;;;;14.88;8.48;;;7.30;99.90;;;;;;5007157;28;20466;-65
2022/10/10 01:53:35;;;;;;;11.60;7.95;;;7.20;99.90;;;;;;5019237;28;20046;-65
2022/10/10 01:56:29;;;;;;;12.18;8.30;;;7.20;99.90;;;;;;5031784;28;20480;-64
2022/10/10 01:59:16;;;;;;;12.75;7.85;;;7.20;99.90;;;;;;5023773;28;20644;-64
2022/10/10 02:01:57;;;;;;;12.57;7.65;;;7.20;99.90;;;;;;5013205;28;20411;-64
2022/10/10 02:04:39;;;;;;;11.70;7.95;;;7.10;99.90;;;;;;5029348;28;20049;-64
2022/10/10 02:07:22;;;;;;;12.15;7.53;;;7.00;99.90;;;;;;5026884;28;20057;-64
2022/10/10 02:09:49;;;;;;;11.88;7.70;;;7.00;99.90;;;;;;5013869;28;20049;-65
2022/10/10 02:12:15;;;;;;;13.50;7.47;;;7.00;99.90;;;;;;5013681;28;20041;-65
2022/10/10 02:14:45;;;;;;;13.52;7.80;;;7.00;99.90;;;;;;5023017;28;20107;-65
2022/10/10 02:17:13;;;;;;;13.10;7.88;;;7.00;99.90;;;;;;5019856;28;20045;-65
2022/10/10 02:19:47;;;;;;;11.68;7.68;;;7.00;99.90;;;;;;5013281;28;20399;-65
2022/10/10 02:22:13;;;;;;;11.10;7.43;;;7.10;99.90;;;;;;5021209;28;20072;-65
2022/10/10 02:24:39;;;;;;;11.80;8.23;;;7.10;99.90;;;;;;5022988;28;20131;-65
2022/10/10 02:27:14;;;;;;;16.30;8.30;;;7.20;99.90;;;;;;5023073;28;20171;-65
2022/10/10 02:29:42;;;;;;;12.45;8.23;;;7.20;99.90;;;;;;5027095;28;20083;-65
2022/10/10 02:32:15;;;;;;;13.50;8.23;;;7.20;99.90;;;;;;5020573;28;20044;-65
2022/10/10 02:34:49;;;;;;;16.45;8.88;;;7.20;99.90;;;;;;5013283;28;20064;-65
2022/10/10 02:37:15;;;;;;;13.65;7.63;;;7.20;99.90;;;;;;5013630;28;20055;-65
2022/10/10 02:39:50;;;;;;;14.90;8.32;;;7.30;99.90;;;;;;5025819;28;20041;-65
2022/10/10 02:42:19;;;;;;;14.02;8.32;;;7.30;99.90;;;;;;5024128;28;20041;-64
2022/10/10 02:44:45;;;;;;;12.30;8.27;;;7.30;99.90;;;;;;5030781;28;20042;-65
2022/10/10 02:47:12;;;;;;;13.68;8.20;;;7.40;99.90;;;;;;5028167;28;20049;-64
2022/10/10 02:49:39;;;;;;;13.90;8.15;;;7.40;99.90;;;;;;4999507;28;20526;-64
2022/10/10 02:52:05;;;;;;;9.93;7.25;;;7.50;99.90;;;;;;5038060;28;20033;-64
2022/10/10 02:54:31;;;;;;;13.35;8.10;;;7.50;99.90;;;;;;5028077;28;20038;-65
2022/10/10 02:56:56;;;;;;;13.85;8.43;;;7.60;99.90;;;;;;5027950;28;20043;-65
2022/10/10 02:59:22;;;;;;;11.65;7.60;;;7.60;99.90;;;;;;5030557;28;20045;-65
2022/10/10 03:01:48;;;;;;;15.48;7.72;;;7.60;99.90;;;;;;5012824;28;20069;-65
2022/10/10 03:04:13;;;;;;;12.02;7.97;;;7.70;99.90;;;;;;4990927;28;20498;-65
2022/10/10 03:06:39;;;;;;;15.13;8.38;;;7.60;99.90;;;;;;5029786;28;20037;-64
2022/10/10 03:09:05;;;;;;;14.48;7.93;;;7.70;99.90;;;;;;5030477;28;20049;-65
2022/10/10 03:11:30;;;;;;;12.32;7.82;;;7.60;99.90;;;;;;5008716;28;20125;-65
2022/10/10 03:13:56;;;;;;;13.98;7.90;;;7.60;99.90;;;;;;5018625;28;20121;-65
2022/10/10 03:16:22;;;;;;;16.98;8.32;;;7.60;99.90;;;;;;5030365;28;20063;-65
2022/10/10 03:18:47;;;;;;;19.17;8.93;;;7.60;99.90;;;;;;5030648;28;20044;-65
2022/10/10 03:21:13;;;;;;;16.60;8.32;;;7.60;99.90;;;;;;5002805;28;20458;-64
2022/10/10 03:23:39;;;;;;;15.52;7.88;;;7.60;99.90;;;;;;5012394;28;20038;-66
2022/10/10 03:26:04;;;;;;;13.55;7.65;;;7.70;99.90;;;;;;5030373;28;20045;-64
2022/10/10 03:28:30;;;;;;;11.85;7.57;;;7.70;99.90;;;;;;5007106;28;20498;-65
2022/10/10 03:30:56;;;;;;;16.05;8.55;;;7.70;99.90;;;;;;5029678;28;20503;-65
2022/10/10 03:33:21;;;;;;;14.00;7.82;;;7.70;99.90;;;;;;5029716;28;20033;-65
2022/10/10 03:35:47;;;;;;;12.85;8.75;;;7.80;99.90;;;;;;5030444;28;20114;-65
2022/10/10 03:38:13;;;;;;;14.35;7.88;;;7.80;99.90;;;;;;5027076;28;20033;-65
2022/10/10 03:40:41;;;;;;;12.68;7.93;;;7.80;99.90;;;;;;5006291;28;20041;-65
2022/10/10 03:43:08;;;;;;;12.32;8.07;;;7.90;99.90;;;;;;5029582;28;20049;-65
2022/10/10 03:45:34;;;;;;;16.17;8.52;;;7.90;99.90;;;;;;5021260;28;20042;-65
2022/10/10 03:47:59;;;;;;;14.98;8.60;;;7.90;99.90;;;;;;5016530;28;20053;-65
2022/10/10 03:50:25;;;;;;;17.02;8.20;;;7.90;99.90;;;;;;5024805;28;20046;-65
2022/10/10 03:52:51;;;;;;;14.60;8.55;;;7.90;99.90;;;;;;5047818;28;20034;-65
2022/10/10 03:55:16;;;;;;;12.45;8.40;;;7.90;99.90;;;;;;5032088;28;20037;-65
2022/10/10 03:57:42;;;;;;;14.77;8.73;;;7.80;99.90;;;;;;5018958;28;20557;-65
2022/10/10 04:00:08;;;;;;;15.38;8.80;;;7.80;99.90;;;;;;5012084;28;20045;-64
2022/10/10 04:02:34;;;;;;;14.35;8.77;;;7.70;99.90;;;;;;5018350;28;20050;-65
2022/10/10 04:04:59;;;;;;;15.40;8.20;;;7.80;99.90;;;;;;5024181;28;20033;-65
2022/10/10 04:07:25;;;;;;;17.30;8.32;;;7.80;99.90;;;;;;5030014;28;20038;-65
2022/10/10 04:09:51;;;;;;;16.05;8.88;;;7.80;99.90;;;;;;5029247;28;20372;-65
2022/10/10 04:12:16;;;;;;;15.77;8.98;;;7.80;99.90;;;;;;5002861;28;20038;-65
2022/10/10 04:14:42;;;;;;;13.15;8.63;;;7.70;99.90;;;;;;5026469;28;20116;-65
2022/10/10 04:17:08;;;;;;;13.40;8.23;;;7.60;99.90;;;;;;5029981;28;20042;-65
2022/10/10 04:19:33;;;;;;;15.80;8.52;;;7.60;99.90;;;;;;5023548;28;20492;-65
2022/10/10 04:21:59;;;;;;;14.20;9.13;;;7.60;99.90;;;;;;5006898;28;20136;-65
2022/10/10 04:24:24;;;;;;;11.77;8.10;;;7.60;99.90;;;;;;5033493;28;20044;-65
2022/10/10 04:26:50;;;;;;;14.63;8.52;;;7.60;99.90;;;;;;5013662;28;20140;-66
2022/10/10 04:29:15;;;;;;;13.68;8.30;;;7.50;99.90;;;;;;5008261;28;20059;-65
2022/10/10 04:31:41;;;;;;;17.95;9.18;;;7.50;99.90;;;;;;5033049;28;20091;-65
2022/10/10 04:34:06;;;;;;;17.35;8.63;;;7.50;99.90;;;;;;5056318;22;20215;-63
2022/10/10 04:36:32;;;;;;;15.10;8.55;;;7.50;99.90;;;;;;5026480;28;20521;-63
2022/10/10 04:38:58;;;;;;;19.15;8.85;;;7.50;99.90;;;;;;5032817;28;20052;-63
2022/10/10 04:41:24;;;;;;;19.02;8.48;;;7.40;99.90;;;;;;5032558;28;20071;-63
2022/10/10 04:43:49;;;;;;;11.93;8.45;;;7.40;99.90;;;;;;5031010;28;20096;-63
2022/10/10 04:46:15;;;;;;;17.27;9.35;;;7.40;99.90;;;;;;5026209;28;20030;-63
2022/10/10 04:48:40;;;;;;;14.52;9.20;;;7.30;99.90;;;;;;5018416;28;20604;-63
2022/10/10 04:51:06;;;;;;;14.32;9.27;;;7.30;99.90;;;;;;5032292;28;20403;-63
2022/10/10 04:53:32;;;;;;;14.10;9.15;;;7.30;99.90;;;;;;5027142;28;20419;-63
2022/10/10 04:55:57;;;;;;;13.93;9.10;;;7.30;99.90;;;;;;5032373;28;20065;-63
2022/10/10 04:58:23;;;;;;;14.90;9.40;;;7.30;99.90;;;;;;5015246;28;20045;-65
2022/10/10 05:00:53;;;;;;;17.40;9.30;;;7.20;99.90;;;;;;5028286;28;20041;-64
2022/10/10 05:03:20;;;;;;;16.13;9.27;;;7.20;99.90;;;;;;5014702;28;20056;-64
2022/10/10 05:05:46;;;;;;;17.05;8.85;;;7.10;99.90;;;;;;5032706;28;20431;-64
2022/10/10 05:08:12;;;;;;;17.30;9.75;;;7.10;99.90;;;;;;5026008;28;20056;-64
2022/10/10 05:10:38;;;;;;;16.58;9.27;;;7.10;99.90;;;;;;5029079;28;20558;-63
2022/10/10 05:13:05;;;;;;;14.38;8.85;;;7.10;99.90;;;;;;5032129;28;20037;-67
2022/10/10 05:15:34;;;;;;;15.73;9.32;;;7.00;99.90;;;;;;5028571;28;20041;-66
2022/10/10 05:18:00;;;;;;;14.57;9.35;;;7.00;99.90;;;;;;5028192;28;20130;-67
2022/10/10 05:20:25;;;;;;;14.35;9.73;;;7.00;99.90;;;;;;5032470;28;20084;-67
2022/10/10 05:22:51;;;;;;;16.33;10.02;;;7.00;99.90;;;;;;5031733;28;20044;-66
2022/10/10 05:25:16;;;;;;;15.32;9.48;;;7.00;99.90;;;;;;5024355;28;20388;-67
2022/10/10 05:27:42;;;;;;;14.90;9.60;;;7.00;99.90;;;;;;5030568;28;20072;-67
2022/10/10 05:30:08;;;;;;;21.30;10.25;;;7.00;99.90;;;;;;5032107;28;20064;-67
2022/10/10 05:32:34;;;;;;;16.92;9.52;;;7.00;99.90;;;;;;5031844;28;20037;-67
2022/10/10 05:34:59;;;;;;;15.40;9.65;;;6.90;99.90;;;;;;5028119;28;20103;-67
2022/10/10 05:37:25;;;;;;;16.92;9.80;;;6.90;99.90;;;;;;5027970;28;20430;-67
2022/10/10 05:39:50;;;;;;;15.32;10.00;;;6.90;99.90;;;;;;5032109;28;20129;-67
2022/10/10 05:42:16;;;;;;;18.77;10.63;;;6.90;99.90;;;;;;5024253;28;20029;-67
2022/10/10 05:44:42;;;;;;;17.40;9.85;;;6.90;99.90;;;;;;5024060;28;20046;-67
2022/10/10 05:47:07;;;;;;;16.30;9.55;;;6.90;99.90;;;;;;5031734;28;20407;-68
2022/10/10 05:49:33;;;;;;;21.20;10.35;;;6.90;99.90;;;;;;5033227;28;20037;-66
2022/10/10 05:51:58;;;;;;;16.38;9.63;;;6.90;99.90;;;;;;5024960;28;20060;-67
2022/10/10 05:54:24;;;;;;;15.88;9.85;;;6.90;99.90;;;;;;5031743;28;20522;-67
2022/10/10 05:56:50;;;;;;;22.80;10.05;;;6.90;99.90;;;;;;5032811;28;20136;-67
2022/10/10 05:59:15;;;;;;;16.02;9.63;;;6.90;99.90;;;;;;5023935;28;20041;-67
2022/10/10 06:01:41;;;;;;;18.35;9.48;;;6.90;99.90;;;;;;5031100;28;20041;-65
2022/10/10 06:04:06;;;;;;;16.38;9.65;;;6.90;99.90;;;;;;5031428;28;20314;-65
2022/10/10 06:06:32;;;;;;;13.18;9.10;;;6.80;99.90;;;;;;5031428;28;20040;-63
2022/10/10 06:08:58;;;;;;;14.85;9.20;;;6.80;99.90;;;;;;5016477;28;20148;-63
2022/10/10 06:11:24;;;;;;;18.58;9.65;;;6.80;99.90;;;;;;5029319;28;20399;-63
2022/10/10 06:13:54;;;;;;;18.50;9.65;;;6.90;99.90;;;;;;5029428;28;20159;-64
2022/10/10 06:16:21;;;;;;;17.27;9.93;;;6.90;99.90;;;;;;5003075;28;20056;-64
2022/10/10 06:18:47;;;;;;;18.20;10.30;;;7.00;99.90;;;;;;5028010;28;20048;-65
2022/10/10 06:21:13;;;;;;;16.48;10.07;;;7.10;99.90;;;;;;5029455;28;20116;-67
2022/10/10 06:23:39;;;;;;;17.73;9.75;;;7.20;99.90;;;;;;5023765;28;20487;-66
2022/10/10 06:26:05;;;;;;;17.35;9.73;;;7.30;99.90;;;;;;5030933;28;20033;-67
2022/10/10 06:28:31;;;;;;;15.95;10.07;;;7.30;99.90;;;;;;5031201;28;20391;-67
2022/10/10 06:31:02;;;;;;;13.55;9.10;;;7.40;99.90;;;;;;5030035;28;20368;-66
2022/10/10 06:33:28;;;;;;;16.52;9.90;;;7.50;99.90;;;;;;5026604;28;20037;-67
2022/10/10 06:35:54;;;;;;;16.15;9.45;;;7.60;99.90;;;;;;5029044;28;20099;-67
2022/10/10 06:38:19;;;;;;;19.50;9.40;;;7.70;99.90;;;;;;5031203;28;20030;-67
2022/10/10 06:40:45;;;;;;;15.77;10.10;;;7.80;99.90;;;;;;5025978;28;20034;-67
2022/10/10 06:43:13;;;;;;;17.30;10.30;;;7.80;99.90;;;;;;5021597;28;20116;-66
2022/10/10 06:45:41;;;;;;;15.38;9.40;;;7.90;99.90;;;;;;5030563;28;20495;-67
2022/10/10 06:48:08;;;;;;;17.25;10.43;;;7.90;99.90;;;;;;5028135;28;20117;-67
2022/10/10 06:50:34;;;;;;;16.23;9.70;;;8.00;99.90;;;;;;5001695;28;20068;-67
2022/10/10 06:52:59;;;;;;;15.98;10.10;;;8.10;99.90;;;;;;5038059;28;20034;-67
2022/10/10 06:55:25;;;;;;;15.32;10.02;;;8.20;99.90;;;;;;5030987;28;20048;-67
2022/10/10 06:57:51;;;;;;;16.80;9.23;;;8.40;99.90;;;;;;5025027;28;20087;-67
2022/10/10 07:00:17;;;;;;;16.13;9.73;;;8.50;99.90;;;;;;5011631;28;20042;-67
2022/10/10 07:02:43;;;;;;;16.50;9.98;;;8.60;99.90;;;;;;5030640;28;20131;-67
2022/10/10 07:05:14;;;;;;;15.55;9.95;;;8.60;99.90;;;;;;5023870;28;20442;-67
2022/10/10 07:07:40;;;;;;;16.38;9.57;;;8.60;99.90;;;;;;5029017;28;20056;-67
2022/10/10 07:10:09;;;;;;;18.13;9.63;;;8.70;99.90;;;;;;5030571;28;20447;-67
2022/10/10 07:12:34;;;;;;;16.55;9.65;;;8.80;99.90;;;;;;5030234;28;20045;-67
2022/10/10 07:15:00;;;;;;;13.82;9.10;;;8.90;99.90;;;;;;5024382;28;20071;-67
2022/10/10 07:17:25;;;;;;;19.13;10.45;;;9.00;99.90;;;;;;5027794;28;20056;-67
2022/10/10 07:19:51;;;;;;;14.85;9.57;;;9.00;99.90;;;;;;5030597;28;20049;-67
2022/10/10 07:22:17;;;;;;;17.52;9.90;;;9.10;99.90;;;;;;5022821;28;20044;-67
2022/10/10 07:24:42;;;;;;;16.80;9.85;;;9.20;99.90;;;;;;5026868;28;20041;-67
2022/10/10 07:27:08;;;;;;;16.23;9.65;;;9.30;99.90;;;;;;5030481;28;20519;-67
2022/10/10 07:29:33;;;;;;;15.55;9.57;;;9.40;99.90;;;;;;5030671;28;20029;-67
2022/10/10 07:31:59;;;;;;;15.45;9.88;;;9.40;99.90;;;;;;5023550;28;20529;-67
2022/10/10 07:34:25;;;;;;;17.33;10.10;;;9.50;99.90;;;;;;5019003;28;20107;-67
2022/10/10 07:36:51;;;;;;;16.80;10.07;;;9.60;99.90;;;;;;5030183;28;20041;-67
2022/10/10 07:39:21;;;;;;;16.25;9.77;;;9.60;99.90;;;;;;5025154;28;20095;-67
2022/10/10 07:41:47;;;;;;;16.67;10.40;;;9.70;99.90;;;;;;5029293;28;20037;-67
2022/10/10 07:44:12;;;;;;;15.93;9.95;;;9.80;99.90;;;;;;5030036;28;20042;-66
2022/10/10 07:46:38;;;;;;;15.43;10.32;;;9.80;99.90;;;;;;5027309;28;20050;-67
2022/10/10 07:49:04;;;;;;;18.00;9.32;;;9.80;99.90;;;;;;5022620;28;20037;-67
2022/10/10 07:51:29;;;;;;;16.40;10.18;;;9.80;99.90;;;;;;5032087;28;20037;-67
2022/10/10 07:53:55;;;;;;;13.95;11.00;;;9.90;99.90;;;;;;5034559;28;20504;-67
2022/10/10 07:56:21;;;;;;;16.00;10.70;;;10.00;99.90;;;;;;5022156;28;20041;-67
2022/10/10 07:58:46;;;;;;;18.80;10.60;;;10.00;99.90;;;;;;5033491;28;20439;-67
2022/10/10 08:01:13;;;;;;;17.15;10.45;;;10.20;99.90;;;;;;5033460;28;20072;-67
2022/10/10 08:03:39;;;;;;;21.50;10.52;;;10.20;99.90;;;;;;5027989;28;20104;-66
2022/10/10 08:06:08;;;;;;;15.98;10.80;;;10.30;99.90;;;;;;5022109;28;20554;-67
2022/10/10 08:08:34;;;;;;;17.20;10.55;;;10.30;99.90;;;;;;5033446;28;20439;-67
2022/10/10 08:11:00;;;;;;;17.85;11.13;;;10.40;99.90;;;;;;5013693;28;20196;-67
2022/10/10 08:13:26;;;;;;;17.75;11.85;;;10.50;99.90;;;;;;5030992;28;20128;-67
2022/10/10 08:15:53;;;;;;;20.00;10.93;;;10.50;99.90;;;;;;5032940;28;20116;-67
2022/10/10 08:18:18;;;;;;;24.38;11.88;;;10.50;99.90;;;;;;5034076;28;20045;-67
2022/10/10 08:20:44;;;;;;;17.02;11.10;;;10.60;99.90;;;;;;5003147;28;20148;-67
2022/10/10 08:23:10;;;;;;;16.58;10.40;;;10.70;99.90;;;;;;5015256;28;20525;-67
2022/10/10 08:25:36;;;;;;;17.10;10.55;;;10.70;99.90;;;;;;5033302;28;20124;-67
2022/10/10 08:28:02;;;;;;;19.15;10.13;;;10.70;99.90;;;;;;5029394;28;20038;-67
2022/10/10 08:30:27;;;;;;;17.88;10.95;;;10.70;99.90;;;;;;5006338;28;20065;-67
2022/10/10 08:32:53;;;;;;;19.08;10.05;;;10.70;99.90;;;;;;5033361;28;20044;-67
2022/10/10 08:35:19;;;;;;;15.55;9.68;;;10.80;99.90;;;;;;5015975;28;20450;-67
2022/10/10 08:37:44;;;;;;;17.60;11.18;;;10.80;99.90;;;;;;5028700;28;20041;-67
2022/10/10 08:40:15;;;;;;;16.80;10.43;;;10.90;99.90;;;;;;5030032;28;20038;-67
2022/10/10 08:42:47;;;;;;;17.50;11.13;;;10.90;99.90;;;;;;5025607;28;20053;-66
2022/10/10 08:45:18;;;;;;;14.18;9.75;;;11.00;99.90;;;;;;5023278;28;20375;-67
2022/10/10 08:48:00;;;;;;;17.83;10.25;;;11.00;99.90;;;;;;5027711;28;20088;-66
2022/10/10 08:50:31;;;;;;;16.58;9.95;;;11.00;99.90;;;;;;5026524;28;20077;-67
2022/10/10 08:53:07;;;;;;;16.33;11.30;;;11.10;99.90;;;;;;5017335;28;20335;-67
2022/10/10 08:55:36;;;;;;;16.65;11.15;;;11.20;99.90;;;;;;5013614;28;20068;-66
2022/10/10 08:58:17;;;;;;;18.98;10.18;;;11.30;99.90;;;;;;5031510;28;20045;-66
2022/10/10 09:00:47;;;;;;;15.00;10.63;;;11.40;99.90;;;;;;4991229;28;20050;-66
2022/10/10 09:03:38;;;;;;;22.60;10.63;;;11.50;99.90;;;;;;5018051;28;20043;-66
2022/10/10 09:06:41;;;;;;;17.30;11.02;;;11.60;99.90;;;;;;5031830;28;20033;-66
2022/10/10 09:09:36;;;;;;;19.10;10.80;;;11.70;99.90;;;;;;5013828;28;20049;-65
2022/10/10 09:12:23;;;;;;;17.75;10.02;;;11.90;99.90;;;;;;5030273;28;20034;-67
2022/10/10 09:15:02;;;;;;;16.35;9.00;;;12.00;99.90;;;;;;5029879;28;20091;-67
2022/10/10 09:17:41;;;;;;;16.45;10.13;;;12.00;99.90;;;;;;5028172;28;20128;-67
2022/10/10 09:20:26;;;;;;;15.38;10.82;;;12.00;99.90;;;;;;5020170;28;20033;-66
2022/10/10 09:23:02;;;;;;;16.92;10.55;;;12.10;99.90;;;;;;5032162;28;20103;-66
2022/10/10 09:25:31;;;;;;;15.27;10.23;;;12.10;99.90;;;;;;5032491;28;20041;-67
2022/10/10 09:28:38;;;;;;;15.27;10.68;;;12.30;99.90;;;;;;5029623;28;20042;-67
2022/10/10 09:31:12;;;;;;;15.77;8.93;;;12.60;99.90;;;;;;5014266;28;20637;-67
2022/10/10 09:33:43;;;;;;;22.55;10.45;;;12.70;99.90;;;;;;5032123;28;20411;-67
2022/10/10 09:36:11;;;;;;;;;;;12.90;99.90;;;;;;5025879;28;20514;-67
2022/10/10 09:38:48;;;;;;;16.52;10.60;;;13.00;99.90;;;;;;5012402;28;20172;-67
2022/10/10 09:41:17;;;;;;;15.80;10.05;;;13.00;99.90;;;;;;5031915;28;20051;-66
2022/10/10 09:43:43;;;;;;;20.73;10.20;;;13.10;99.90;;;;;;5029187;28;20399;-67
2022/10/10 09:46:09;;;;;;;18.52;10.23;;;13.20;99.90;;;;;;5031649;28;20041;-67
2022/10/10 09:48:40;;;;;;;17.10;10.55;;;13.30;99.90;;;;;;5031889;28;20037;-67
2022/10/10 09:51:12;;;;;;;15.32;10.50;;;13.50;99.90;;;;;;5031800;28;20033;-67
2022/10/10 09:53:38;;;;;;;15.57;10.32;;;13.60;99.90;;;;;;5007284;28;20503;-66
2022/10/10 09:56:04;;;;;;;21.23;10.27;;;13.70;99.90;;;;;;5022313;28;20029;-67
2022/10/10 09:58:40;;;;;;;15.90;10.13;;;14.00;99.90;;;;;;5027665;28;20241;-67
2022/10/10 10:01:11;;;;;;;17.88;9.73;;;14.20;99.90;;;;;;5030203;28;20396;-67
2022/10/10 10:03:37;;;;;;;14.60;9.77;;;14.30;99.90;;;;;;5031915;28;20048;-66
2022/10/10 10:06:02;;;;;;;14.48;10.00;;;14.30;99.90;;;;;;5002220;28;20037;-67
2022/10/10 10:08:33;;;;;;;14.25;9.65;;;14.30;99.90;;;;;;5021513;28;20435;-66
2022/10/10 10:11:00;;;;;;;16.77;9.77;;;14.40;99.90;;;;;;5022045;28;20049;-67
2022/10/10 10:13:33;;;;;;;17.17;10.13;;;14.50;99.90;;;;;;5031181;28;20064;-67
2022/10/10 10:16:11;;;;;;;16.45;9.82;;;14.50;99.90;;;;;;5030789;28;20503;-67
2022/10/10 10:18:43;;;;;;;14.77;9.48;;;14.70;99.90;;;;;;5019368;28;20381;-67
2022/10/10 10:21:19;;;;;;;14.73;9.10;;;14.80;99.90;;;;;;5023225;28;20029;-67
2022/10/10 10:23:50;;;;;;;15.82;9.20;;;14.80;99.90;;;;;;5031385;28;20073;-67
2022/10/10 10:26:23;;;;;;;13.48;9.55;;;14.90;99.90;;;;;;5023912;28;20108;-66
2022/10/10 10:28:51;;;;;;;13.77;9.13;;;14.80;99.90;;;;;;5030713;28;20033;-67
2022/10/10 10:31:30;;;;;;;16.42;9.63;;;14.80;99.90;;;;;;5030784;28;20271;-67
2022/10/10 10:34:19;;;;;;;16.85;9.68;;;14.90;99.90;;;;;;5025417;28;20034;-66
2022/10/10 10:36:51;;;;;;;18.20;9.57;;;14.80;99.90;;;;;;5027842;28;20060;-67
2022/10/10 10:39:41;;;;;;;12.43;9.20;;;14.70;99.90;;;;;;5030996;28;20496;-64
2022/10/10 10:42:19;;;;;;;14.40;9.77;;;14.80;99.90;;;;;;5027799;28;20176;-64
2022/10/10 10:45:17;;;;;;;13.75;8.88;;;14.80;99.90;;;;;;5030557;28;20049;-65
2022/10/10 10:47:45;;;;;;;17.83;9.68;;;14.90;99.90;;;;;;5030646;28;20454;-66
2022/10/10 10:50:37;;;;;;;14.07;8.82;;;15.00;99.90;;;;;;5030570;28;20498;-64
2022/10/10 10:53:08;;;;;;;;;;;15.20;99.90;;;;;;4984005;28;20050;-64
2022/10/10 10:55:34;;;;;;;15.57;8.70;;;15.30;99.90;;;;;;5026204;28;20284;-65
2022/10/10 10:58:40;;;;;;;13.98;8.60;;;15.30;99.90;;;;;;5027142;28;20052;-66
2022/10/10 11:01:17;;;;;;;12.88;9.18;;;15.40;99.90;;;;;;5030032;28;20044;-66
2022/10/10 11:03:46;;;;;;;16.73;9.57;;;15.50;99.90;;;;;;5030427;28;20495;-65
2022/10/10 11:06:36;;;;;;;14.60;8.95;;;15.40;99.90;;;;;;5023157;28;20041;-65
2022/10/10 11:09:13;;;;;;;14.27;8.88;;;15.40;99.90;;;;;;5030008;28;20041;-65
2022/10/10 11:11:47;;;;;;;14.85;8.90;;;15.40;99.90;;;;;;5012347;28;20041;-64
2022/10/10 11:14:16;;;;;;;13.55;8.90;;;15.50;99.90;;;;;;5027304;28;20043;-65
2022/10/10 11:16:49;;;;;;;16.85;9.02;;;15.40;99.90;;;;;;5022653;28;20140;-65
2022/10/10 11:19:27;;;;;;;13.18;9.00;;;15.50;99.90;;;;;;5030417;28;20103;-65
2022/10/10 11:21:59;;;;;;;14.75;8.80;;;15.60;99.90;;;;;;5030418;28;20049;-65
2022/10/10 11:24:43;;;;;;;13.80;8.07;;;15.70;99.90;;;;;;5017850;28;20091;-67
2022/10/10 11:27:19;;;;;;;11.95;7.20;;;15.80;99.90;;;;;;5020389;28;20524;-66
2022/10/10 11:30:11;;;;;;;13.75;7.45;;;15.80;99.90;;;;;;5025993;28;20057;-65
2022/10/10 11:33:26;;;;;;;16.70;8.00;;;15.90;99.90;;;;;;5022380;28;20034;-65
2022/10/10 11:36:05;;;;;;;13.00;7.97;;;15.90;99.90;;;;;;5020443;28;20039;-65
2022/10/10 11:38:49;;;;;;;16.83;8.43;;;16.00;99.90;;;;;;5025281;28;20090;-64
2022/10/10 11:41:30;;;;;;;14.10;8.02;;;15.90;99.90;;;;;;5023007;28;20047;-64
2022/10/10 11:44:03;;;;;;;14.70;7.68;;;16.00;99.90;;;;;;5030386;28;20041;-64
2022/10/10 11:46:53;;;;;;;11.63;7.50;;;16.10;99.90;;;;;;5021515;28;20049;-65
2022/10/10 11:49:20;;;;;;;14.77;8.18;;;16.10;99.90;;;;;;5013269;28;20432;-64
2022/10/10 11:52:24;;;;;;;15.05;8.15;;;16.20;99.90;;;;;;5019451;28;20041;-65
2022/10/10 11:54:59;;;;;;;14.40;7.97;;;16.10;99.90;;;;;;5018107;28;20496;-67
2022/10/10 11:57:46;;;;;;;16.90;8.45;;;15.90;99.90;;;;;;5029697;28;20471;-67
2022/10/10 12:00:14;;;;;;;13.05;7.78;;;15.80;99.90;;;;;;5011206;28;20512;-67
2022/10/10 12:02:41;;;;;;;12.90;8.30;;;15.60;99.90;;;;;;5026579;28;20041;-65
2022/10/10 12:05:23;;;;;;;16.73;8.82;;;15.50;99.90;;;;;;5008605;28;20038;-66
2022/10/10 12:08:05;;;;;;;15.70;8.77;;;15.50;99.90;;;;;;5025744;28;20060;-66
2022/10/10 12:10:45;;;;;;;13.38;8.48;;;15.40;99.90;;;;;;5006644;28;20038;-67
2022/10/10 12:13:24;;;;;;;15.35;9.07;;;15.40;99.90;;;;;;5013180;28;20034;-67
2022/10/10 12:15:52;;;;;;;12.05;8.48;;;15.50;99.90;;;;;;5019600;28;20120;-67
2022/10/10 12:18:29;;;;;;;12.70;8.80;;;15.50;99.90;;;;;;5025706;28;20062;-67
2022/10/10 12:21:17;;;;;;;14.55;8.70;;;15.40;99.90;;;;;;5019443;28;20061;-67
2022/10/10 12:23:49;;;;;;;19.77;9.05;;;15.50;99.90;;;;;;5020571;28;20042;-67
2022/10/10 12:26:20;;;;;;;13.43;8.50;;;15.50;99.90;;;;;;5020129;28;20034;-67
2022/10/10 12:29:01;;;;;;;13.00;8.30;;;15.70;99.90;;;;;;5026753;28;20049;-67
2022/10/10 12:31:34;;;;;;;;;;;15.80;99.90;;;;;;5028230;28;20045;-67
2022/10/10 12:34:20;;;;;;;13.93;7.65;;;15.90;99.90;;;;;;5025313;28;19925;-67
2022/10/10 12:37:25;;;;;;;11.73;8.18;;;15.90;99.90;;;;;;5029177;28;20049;-67
2022/10/10 12:40:20;;;;;;;13.85;7.85;;;15.90;99.90;;;;;;5022061;28;20053;-67
2022/10/10 12:42:46;;;;;;;15.25;7.82;;;15.90;99.90;;;;;;5032111;28;20115;-67
2022/10/10 12:45:30;;;;;;;18.70;8.68;;;15.90;99.90;;;;;;5033529;28;20272;-67
2022/10/10 12:47:56;;;;;;;13.32;8.68;;;15.90;99.90;;;;;;5025145;28;20049;-67
2022/10/10 12:50:34;;;;;;;11.55;8.55;;;15.80;99.90;;;;;;5021113;28;20037;-67
2022/10/10 12:53:04;;;;;;;13.95;7.70;;;15.80;99.90;;;;;;5031476;28;20041;-67
2022/10/10 12:55:45;;;;;;;12.57;8.40;;;15.70;99.90;;;;;;5023853;28;20045;-67
2022/10/10 12:58:23;;;;;;;15.75;8.48;;;15.70;99.90;;;;;;5025504;28;20037;-67
2022/10/10 13:00:49;;;;;;;15.32;8.68;;;15.60;99.90;;;;;;5017059;28;20053;-66